sensor_id;sensor_type;location;lat;lon;timestamp;pressure;altitude;pressure_sealevel;temperature;humidity
73105;BME280;61296;50.526;30.792;2023-03-31T00:09:39;99060.31;;;2.74;61.93
73105;BME280;61296;50.526;30.792;2023-03-31T00:24:59;98937.16;;;1.80;61.55
73105;BME280;61296;50.526;30.792;2023-03-31T00:40:19;99020.22;;;2.38;61.62
73105;BME280;61296;50.526;30.792;2023-03-31T00:55:45;98962.75;;;2.24;59.22
73105;BME280;61296;50.526;30.792;2023-03-31T01:11:09;98953.72;;;2.65;61.02
73105;BME280;61296;50.526;30.792;2023-03-31T01:42:29;98973.19;;;2.92;59.83
73105;BME280;61296;50.526;30.792;2023-03-31T01:57:59;98862.72;;;2.35;58.55
73105;BME280;61296;50.526;30.792;2023-03-31T02:13:19;98953.88;;;3.05;58.24
73105;BME280;61296;50.526;30.792;2023-03-31T02:28:41;98862.75;;;2.59;58.90
73105;BME280;61296;50.526;30.792;2023-03-31T02:44:02;98757.13;;;2.17;58.83
73105;BME280;61296;50.526;30.792;2023-03-31T03:15:06;98869.22;;;2.79;61.21
73105;BME280;61296;50.526;30.792;2023-03-31T03:30:28;98850.22;;;2.67;60.43
73105;BME280;61296;50.526;30.792;2023-03-31T03:45:50;98822.91;;;2.26;62.45
73105;BME280;61296;50.526;30.792;2023-03-31T04:01:09;98852.13;;;2.42;62.94
73105;BME280;61296;50.526;30.792;2023-03-31T04:16:29;98782.63;;;1.92;63.46
73105;BME280;61296;50.526;30.792;2023-03-31T04:31:48;98823.72;;;2.27;63.32
73105;BME280;61296;50.526;30.792;2023-03-31T04:47:10;98658.44;;;1.49;62.16
73105;BME280;61296;50.526;30.792;2023-03-31T05:02:29;98655.19;;;1.67;62.46
73105;BME280;61296;50.526;30.792;2023-03-31T05:17:49;98736.34;;;2.21;62.59
73105;BME280;61296;50.526;30.792;2023-03-31T05:33:10;98629.78;;;1.84;63.48
73105;BME280;61296;50.526;30.792;2023-03-31T05:48:29;98639.16;;;2.11;64.91
73105;BME280;61296;50.526;30.792;2023-03-31T06:03:50;98718.28;;;2.78;65.13
73105;BME280;61296;50.526;30.792;2023-03-31T06:19:33;98657.56;;;2.70;65.32
73105;BME280;61296;50.526;30.792;2023-03-31T06:34:59;98598.50;;;2.39;65.55
73105;BME280;61296;50.526;30.792;2023-03-31T06:50:18;98704.41;;;3.35;66.33
73105;BME280;61296;50.526;30.792;2023-03-31T07:05:47;98656.38;;;3.55;65.00
73105;BME280;61296;50.526;30.792;2023-03-31T07:21:07;98624.34;;;3.48;65.84
73105;BME280;61296;50.526;30.792;2023-03-31T07:36:26;98546.31;;;3.33;64.90
73105;BME280;61296;50.526;30.792;2023-03-31T07:51:46;98515.25;;;3.66;64.26
73105;BME280;61296;50.526;30.792;2023-03-31T08:07:05;98610.78;;;4.70;62.48
73105;BME280;61296;50.526;30.792;2023-03-31T08:22:25;98606.81;;;5.74;60.25
73105;BME280;61296;50.526;30.792;2023-03-31T08:37:44;98609.19;;;5.99;59.70
73105;BME280;61296;50.526;30.792;2023-03-31T08:53:28;98488.91;;;5.88;58.00
73105;BME280;61296;50.526;30.792;2023-03-31T09:08:50;98584.81;;;6.73;56.76
73105;BME280;61296;50.526;30.792;2023-03-31T09:24:21;98462.22;;;6.34;57.14
73105;BME280;61296;50.526;30.792;2023-03-31T09:39:43;98433.72;;;6.32;55.34
73105;BME280;61296;50.526;30.792;2023-03-31T09:55:19;98399.69;;;6.59;53.57
73105;BME280;61296;50.526;30.792;2023-03-31T10:10:43;98374.09;;;6.78;51.17
73105;BME280;61296;50.526;30.792;2023-03-31T10:26:21;98513.56;;;7.92;45.90
73105;BME280;61296;50.526;30.792;2023-03-31T10:41:42;98432.16;;;7.74;44.80
73105;BME280;61296;50.526;30.792;2023-03-31T10:57:04;98317.81;;;7.36;45.21
73105;BME280;61296;50.526;30.792;2023-03-31T11:12:28;98405.00;;;8.24;45.18
73105;BME280;61296;50.526;30.792;2023-03-31T11:27:59;98453.28;;;8.82;45.10
73105;BME280;61296;50.526;30.792;2023-03-31T11:43:31;98432.53;;;8.85;46.63
73105;BME280;61296;50.526;30.792;2023-03-31T11:58:53;98358.50;;;8.63;47.58
73105;BME280;61296;50.526;30.792;2023-03-31T12:14:22;98256.66;;;8.08;47.93
73105;BME280;61296;50.526;30.792;2023-03-31T12:29:50;98327.97;;;8.76;48.26
73105;BME280;61296;50.526;30.792;2023-03-31T12:45:38;98284.50;;;8.74;47.35
73105;BME280;61296;50.526;30.792;2023-03-31T13:01:19;98313.44;;;9.11;44.64
73105;BME280;61296;50.526;30.792;2023-03-31T13:16:39;98255.91;;;8.89;44.73
73105;BME280;61296;50.526;30.792;2023-03-31T13:47:53;98291.47;;;9.14;45.08
73105;BME280;61296;50.526;30.792;2023-03-31T14:03:44;98289.09;;;9.23;45.95
73105;BME280;61296;50.526;30.792;2023-03-31T14:19:31;98120.16;;;8.10;48.35
73105;BME280;61296;50.526;30.792;2023-03-31T14:50:18;98222.59;;;7.63;64.30
73105;BME280;61296;50.526;30.792;2023-03-31T15:05:37;98163.31;;;6.80;68.50
73105;BME280;61296;50.526;30.792;2023-03-31T15:21:00;98192.13;;;6.74;73.29
73105;BME280;61296;50.526;30.792;2023-03-31T15:36:20;98172.41;;;6.36;75.38
73105;BME280;61296;50.526;30.792;2023-03-31T15:51:40;98206.22;;;6.21;77.85
73105;BME280;61296;50.526;30.792;2023-03-31T16:07:01;98302.03;;;6.49;81.94
73105;BME280;61296;50.526;30.792;2023-03-31T16:22:30;98299.91;;;6.28;86.67
73105;BME280;61296;50.526;30.792;2023-03-31T16:37:55;98105.34;;;4.69;92.70
73105;BME280;61296;50.526;30.792;2023-03-31T16:53:17;98132.69;;;4.76;95.35
73105;BME280;61296;50.526;30.792;2023-03-31T17:08:40;98292.31;;;5.74;97.97
73105;BME280;61296;50.526;30.792;2023-03-31T17:24:00;98230.19;;;5.23;99.03
73105;BME280;61296;50.526;30.792;2023-03-31T17:39:20;98128.34;;;4.41;99.71
73105;BME280;61296;50.526;30.792;2023-03-31T17:54:40;98127.09;;;4.35;100.00
73105;BME280;61296;50.526;30.792;2023-03-31T18:10:01;98112.78;;;4.12;100.00
73105;BME280;61296;50.526;30.792;2023-03-31T18:25:23;98103.25;;;4.25;100.00
73105;BME280;61296;50.526;30.792;2023-03-31T18:40:49;98121.00;;;4.45;100.00
73105;BME280;61296;50.526;30.792;2023-03-31T18:56:12;98254.34;;;5.58;100.00
73105;BME280;61296;50.526;30.792;2023-03-31T19:11:31;98145.50;;;5.05;100.00
73105;BME280;61296;50.526;30.792;2023-03-31T19:26:50;98258.13;;;5.84;99.88
73105;BME280;61296;50.526;30.792;2023-03-31T19:42:13;98264.50;;;5.95;100.00
73105;BME280;61296;50.526;30.792;2023-03-31T19:57:44;98175.22;;;5.55;100.00
73105;BME280;61296;50.526;30.792;2023-03-31T20:13:08;98237.34;;;6.13;100.00
73105;BME280;61296;50.526;30.792;2023-03-31T20:28:28;98194.22;;;5.85;100.00
73105;BME280;61296;50.526;30.792;2023-03-31T20:43:54;98083.44;;;5.29;100.00
73105;BME280;61296;50.526;30.792;2023-03-31T20:59:13;98108.25;;;5.61;100.00
73105;BME280;61296;50.526;30.792;2023-03-31T21:14:34;98134.59;;;5.87;100.00
73105;BME280;61296;50.526;30.792;2023-03-31T21:29:55;98138.97;;;5.95;100.00
73105;BME280;61296;50.526;30.792;2023-03-31T21:45:25;98068.03;;;5.50;100.00
73105;BME280;61296;50.526;30.792;2023-03-31T22:00:44;98140.59;;;6.03;100.00
73105;BME280;61296;50.526;30.792;2023-03-31T22:16:13;98162.53;;;6.17;100.00
73105;BME280;61296;50.526;30.792;2023-03-31T22:31:35;98158.13;;;6.02;100.00
73105;BME280;61296;50.526;30.792;2023-03-31T22:46:55;98157.31;;;5.98;100.00
73105;BME280;61296;50.526;30.792;2023-03-31T23:02:15;98110.66;;;5.66;100.00
73105;BME280;61296;50.526;30.792;2023-03-31T23:17:35;98171.19;;;5.82;100.00
73105;BME280;61296;50.526;30.792;2023-03-31T23:33:06;98047.69;;;4.97;100.00
73105;BME280;61296;50.526;30.792;2023-03-31T23:48:26;98224.34;;;5.95;100.00
